sensor_id;sensor_type;location;lat;lon;timestamp;pressure;altitude;pressure_sealevel;temperature;humidity
75188;BME280;63762;51.334;22.108;2023-09-12T00:07:52;101496.36;;;21.06;65.55
75188;BME280;63762;51.334;22.108;2023-09-12T00:18:00;101504.70;;;20.88;66.11
75188;BME280;63762;51.334;22.108;2023-09-12T00:28:04;101500.23;;;20.79;66.89
75188;BME280;63762;51.334;22.108;2023-09-12T00:38:11;101504.66;;;20.72;66.92
75188;BME280;63762;51.334;22.108;2023-09-12T00:48:20;101500.54;;;20.60;66.94
75188;BME280;63762;51.334;22.108;2023-09-12T00:58:27;101504.13;;;20.53;66.91
75188;BME280;63762;51.334;22.108;2023-09-12T01:08:37;101497.25;;;20.41;67.45
75188;BME280;63762;51.334;22.108;2023-09-12T01:18:40;101486.60;;;20.30;67.66
75188;BME280;63762;51.334;22.108;2023-09-12T01:28:47;101487.46;;;20.22;67.86
75188;BME280;63762;51.334;22.108;2023-09-12T01:38:54;101485.30;;;20.08;67.90
75188;BME280;63762;51.334;22.108;2023-09-12T01:49:02;101484.75;;;19.97;68.56
75188;BME280;63762;51.334;22.108;2023-09-12T01:59:08;101482.51;;;19.92;68.77
75188;BME280;63762;51.334;22.108;2023-09-12T02:09:15;101487.23;;;19.82;68.99
75188;BME280;63762;51.334;22.108;2023-09-12T02:19:23;101491.64;;;19.75;69.26
75188;BME280;63762;51.334;22.108;2023-09-12T02:29:29;101475.20;;;19.67;69.96
75188;BME280;63762;51.334;22.108;2023-09-12T02:39:36;101478.28;;;19.64;69.88
75188;BME280;63762;51.334;22.108;2023-09-12T02:49:44;101480.40;;;19.52;70.28
75188;BME280;63762;51.334;22.108;2023-09-12T02:59:51;101480.20;;;19.46;70.76
75188;BME280;63762;51.334;22.108;2023-09-12T03:09:58;101489.34;;;19.37;71.15
75188;BME280;63762;51.334;22.108;2023-09-12T03:20:06;101480.09;;;19.30;71.32
75188;BME280;63762;51.334;22.108;2023-09-12T03:30:12;101491.32;;;19.27;70.87
75188;BME280;63762;51.334;22.108;2023-09-12T03:40:20;101496.78;;;19.27;70.33
75188;BME280;63762;51.334;22.108;2023-09-12T03:50:26;101504.53;;;19.22;70.20
75188;BME280;63762;51.334;22.108;2023-09-12T04:00:34;101501.45;;;19.17;69.95
75188;BME280;63762;51.334;22.108;2023-09-12T04:10:41;101499.65;;;19.08;69.95
75188;BME280;63762;51.334;22.108;2023-09-12T04:20:48;101502.65;;;18.97;71.00
75188;BME280;63762;51.334;22.108;2023-09-12T04:31:02;101507.17;;;18.88;71.57
75188;BME280;63762;51.334;22.108;2023-09-12T04:41:03;101508.01;;;18.89;71.94
75188;BME280;63762;51.334;22.108;2023-09-12T04:51:09;101517.93;;;18.90;71.84
75188;BME280;63762;51.334;22.108;2023-09-12T05:01:16;101526.63;;;18.93;71.60
75188;BME280;63762;51.334;22.108;2023-09-12T05:11:24;101525.46;;;18.96;71.86
75188;BME280;63762;51.334;22.108;2023-09-12T05:21:31;101532.70;;;19.05;72.16
75188;BME280;63762;51.334;22.108;2023-09-12T05:31:38;101528.88;;;19.15;72.43
75188;BME280;63762;51.334;22.108;2023-09-12T05:41:45;101538.11;;;19.32;72.53
75188;BME280;63762;51.334;22.108;2023-09-12T05:51:52;101535.55;;;19.56;72.64
75188;BME280;63762;51.334;22.108;2023-09-12T06:01:59;101529.55;;;19.78;72.33
75188;BME280;63762;51.334;22.108;2023-09-12T06:12:06;101524.42;;;20.09;72.20
75188;BME280;63762;51.334;22.108;2023-09-12T06:22:14;101533.95;;;20.38;71.75
75188;BME280;63762;51.334;22.108;2023-09-12T06:32:20;101536.48;;;20.81;71.61
75188;BME280;63762;51.334;22.108;2023-09-12T06:42:27;101544.09;;;21.35;70.58
75188;BME280;63762;51.334;22.108;2023-09-12T06:52:35;101556.04;;;21.82;69.61
75188;BME280;63762;51.334;22.108;2023-09-12T07:02:42;101554.21;;;22.22;68.22
75188;BME280;63762;51.334;22.108;2023-09-12T07:12:49;101561.18;;;22.79;67.96
75188;BME280;63762;51.334;22.108;2023-09-12T07:22:56;101556.34;;;23.34;66.21
75188;BME280;63762;51.334;22.108;2023-09-12T07:33:04;101555.53;;;23.85;65.05
75188;BME280;63762;51.334;22.108;2023-09-12T07:43:10;101563.91;;;24.35;63.54
75188;BME280;63762;51.334;22.108;2023-09-12T07:53:17;101565.02;;;24.84;62.92
75188;BME280;63762;51.334;22.108;2023-09-12T08:03:24;101564.43;;;25.45;60.82
75188;BME280;63762;51.334;22.108;2023-09-12T08:13:32;101578.48;;;25.99;58.57
75188;BME280;63762;51.334;22.108;2023-09-12T08:23:40;101568.61;;;26.52;57.38
75188;BME280;63762;51.334;22.108;2023-09-12T08:33:46;101572.60;;;26.90;54.38
75188;BME280;63762;51.334;22.108;2023-09-12T08:43:54;101567.65;;;27.26;54.74
75188;BME280;63762;51.334;22.108;2023-09-12T09:04:09;101575.34;;;28.02;51.98
75188;BME280;63762;51.334;22.108;2023-09-12T09:14:14;101571.42;;;28.49;50.99
75188;BME280;63762;51.334;22.108;2023-09-12T09:24:22;101565.50;;;28.89;48.08
75188;BME280;63762;51.334;22.108;2023-09-12T09:34:29;101560.28;;;29.12;47.23
75188;BME280;63762;51.334;22.108;2023-09-12T09:44:36;101558.38;;;29.44;46.20
75188;BME280;63762;51.334;22.108;2023-09-12T09:54:44;101565.38;;;29.15;45.50
75188;BME280;63762;51.334;22.108;2023-09-12T10:04:51;101549.74;;;29.27;45.68
75188;BME280;63762;51.334;22.108;2023-09-12T10:15:00;101551.44;;;29.84;45.76
75188;BME280;63762;51.334;22.108;2023-09-12T10:25:05;101548.51;;;30.22;44.62
75188;BME280;63762;51.334;22.108;2023-09-12T10:35:11;101547.28;;;30.72;39.43
75188;BME280;63762;51.334;22.108;2023-09-12T10:45:19;101539.39;;;30.87;38.53
75188;BME280;63762;51.334;22.108;2023-09-12T10:55:25;101533.31;;;30.78;38.68
75188;BME280;63762;51.334;22.108;2023-09-12T11:05:36;101536.72;;;30.80;37.86
75188;BME280;63762;51.334;22.108;2023-09-12T11:36:13;101525.74;;;31.67;37.33
75188;BME280;63762;51.334;22.108;2023-09-12T11:46:15;101515.09;;;32.22;37.07
75188;BME280;63762;51.334;22.108;2023-09-12T11:56:16;101505.77;;;32.40;35.61
75188;BME280;63762;51.334;22.108;2023-09-12T12:06:17;101504.82;;;32.34;36.82
75188;BME280;63762;51.334;22.108;2023-09-12T12:16:25;101496.11;;;32.07;36.00
75188;BME280;63762;51.334;22.108;2023-09-12T12:26:30;101492.68;;;32.80;35.89
75188;BME280;63762;51.334;22.108;2023-09-12T12:36:43;101494.73;;;32.84;35.46
75188;BME280;63762;51.334;22.108;2023-09-12T12:46:53;101489.76;;;32.86;35.00
75188;BME280;63762;51.334;22.108;2023-09-12T12:56:54;101502.51;;;33.10;36.14
75188;BME280;63762;51.334;22.108;2023-09-12T13:06:58;101492.34;;;33.04;33.34
75188;BME280;63762;51.334;22.108;2023-09-12T13:17:05;101472.07;;;33.25;34.17
75188;BME280;63762;51.334;22.108;2023-09-12T13:27:13;101474.04;;;33.91;32.31
75188;BME280;63762;51.334;22.108;2023-09-12T13:37:19;101476.25;;;32.95;34.20
75188;BME280;63762;51.334;22.108;2023-09-12T13:47:26;101473.70;;;32.14;36.50
75188;BME280;63762;51.334;22.108;2023-09-12T13:57:33;101473.70;;;31.45;35.91
75188;BME280;63762;51.334;22.108;2023-09-12T14:07:41;101460.56;;;31.11;36.90
75188;BME280;63762;51.334;22.108;2023-09-12T14:17:48;101457.84;;;30.93;36.83
75188;BME280;63762;51.334;22.108;2023-09-12T14:27:55;101474.51;;;30.63;37.88
75188;BME280;63762;51.334;22.108;2023-09-12T14:38:02;101481.24;;;30.38;39.07
75188;BME280;63762;51.334;22.108;2023-09-12T14:48:09;101482.70;;;30.40;42.85
75188;BME280;63762;51.334;22.108;2023-09-12T14:58:16;101474.17;;;30.24;39.93
75188;BME280;63762;51.334;22.108;2023-09-12T15:08:23;101474.76;;;30.07;40.94
75188;BME280;63762;51.334;22.108;2023-09-12T15:18:31;101474.45;;;29.97;40.97
75188;BME280;63762;51.334;22.108;2023-09-12T15:28:38;101470.27;;;29.88;42.03
75188;BME280;63762;51.334;22.108;2023-09-12T15:38:45;101475.82;;;29.88;45.19
75188;BME280;63762;51.334;22.108;2023-09-12T15:48:52;101478.34;;;29.72;45.04
75188;BME280;63762;51.334;22.108;2023-09-12T15:58:59;101470.54;;;29.62;46.28
75188;BME280;63762;51.334;22.108;2023-09-12T16:09:06;101476.86;;;29.45;47.38
75188;BME280;63762;51.334;22.108;2023-09-12T16:19:13;101474.88;;;29.27;48.84
75188;BME280;63762;51.334;22.108;2023-09-12T16:29:20;101477.41;;;28.98;49.74
75188;BME280;63762;51.334;22.108;2023-09-12T16:39:27;101479.12;;;28.61;50.36
75188;BME280;63762;51.334;22.108;2023-09-12T16:49:34;101477.57;;;28.21;50.58
75188;BME280;63762;51.334;22.108;2023-09-12T16:59:42;101480.43;;;27.82;51.20
75188;BME280;63762;51.334;22.108;2023-09-12T17:09:49;101476.63;;;27.44;50.86
75188;BME280;63762;51.334;22.108;2023-09-12T17:19:56;101482.55;;;27.15;51.65
75188;BME280;63762;51.334;22.108;2023-09-12T17:30:04;101482.94;;;26.86;52.08
75188;BME280;63762;51.334;22.108;2023-09-12T17:40:10;101478.14;;;26.54;52.21
75188;BME280;63762;51.334;22.108;2023-09-12T17:50:17;101487.38;;;26.27;52.48
75188;BME280;63762;51.334;22.108;2023-09-12T18:00:24;101485.12;;;26.02;53.38
75188;BME280;63762;51.334;22.108;2023-09-12T18:10:31;101489.21;;;25.79;53.64
75188;BME280;63762;51.334;22.108;2023-09-12T18:20:40;101501.14;;;25.58;54.35
75188;BME280;63762;51.334;22.108;2023-09-12T18:30:46;101506.88;;;25.36;55.03
75188;BME280;63762;51.334;22.108;2023-09-12T18:40:53;101506.88;;;25.15;55.80
75188;BME280;63762;51.334;22.108;2023-09-12T18:51:00;101496.05;;;24.92;56.40
75188;BME280;63762;51.334;22.108;2023-09-12T19:01:08;101494.91;;;24.66;56.74
75188;BME280;63762;51.334;22.108;2023-09-12T19:11:14;101490.02;;;24.47;57.38
75188;BME280;63762;51.334;22.108;2023-09-12T19:21:21;101489.08;;;24.25;58.06
75188;BME280;63762;51.334;22.108;2023-09-12T19:31:29;101489.40;;;24.01;58.52
75188;BME280;63762;51.334;22.108;2023-09-12T19:41:35;101496.38;;;23.89;59.27
75188;BME280;63762;51.334;22.108;2023-09-12T19:51:43;101495.55;;;23.74;59.37
75188;BME280;63762;51.334;22.108;2023-09-12T20:01:50;101499.29;;;23.58;59.92
75188;BME280;63762;51.334;22.108;2023-09-12T20:11:57;101497.20;;;23.46;60.34
75188;BME280;63762;51.334;22.108;2023-09-12T20:22:04;101508.15;;;23.31;60.73
75188;BME280;63762;51.334;22.108;2023-09-12T20:32:12;101510.13;;;23.15;61.12
75188;BME280;63762;51.334;22.108;2023-09-12T20:42:18;101513.37;;;22.96;61.53
75188;BME280;63762;51.334;22.108;2023-09-12T20:52:25;101512.40;;;22.89;61.83
75188;BME280;63762;51.334;22.108;2023-09-12T21:02:32;101498.42;;;22.76;62.05
75188;BME280;63762;51.334;22.108;2023-09-12T21:12:40;101503.30;;;22.66;62.60
75188;BME280;63762;51.334;22.108;2023-09-12T21:22:47;101505.78;;;22.53;62.68
75188;BME280;63762;51.334;22.108;2023-09-12T21:32:54;101499.63;;;22.43;62.96
75188;BME280;63762;51.334;22.108;2023-09-12T21:43:01;101514.12;;;22.29;63.35
75188;BME280;63762;51.334;22.108;2023-09-12T21:53:09;101508.30;;;22.16;63.42
75188;BME280;63762;51.334;22.108;2023-09-12T22:03:15;101511.80;;;22.02;63.92
75188;BME280;63762;51.334;22.108;2023-09-12T22:13:22;101514.59;;;21.85;64.18
75188;BME280;63762;51.334;22.108;2023-09-12T22:26:39;101505.03;;;21.65;64.68
75188;BME280;63762;51.334;22.108;2023-09-12T22:36:46;101512.23;;;21.50;64.90
75188;BME280;63762;51.334;22.108;2023-09-12T22:46:53;101509.00;;;21.39;65.10
75188;BME280;63762;51.334;22.108;2023-09-12T22:57:00;101528.00;;;21.24;65.31
75188;BME280;63762;51.334;22.108;2023-09-12T23:07:07;101501.99;;;21.12;65.70
75188;BME280;63762;51.334;22.108;2023-09-12T23:17:14;101506.94;;;21.01;66.13
75188;BME280;63762;51.334;22.108;2023-09-12T23:27:21;101503.02;;;20.95;66.56
75188;BME280;63762;51.334;22.108;2023-09-12T23:37:29;101499.90;;;20.82;66.45
75188;BME280;63762;51.334;22.108;2023-09-12T23:47:36;101492.02;;;20.71;66.96
75188;BME280;63762;51.334;22.108;2023-09-12T23:57:43;101498.83;;;20.59;67.19
